sensor_id;sensor_type;location;lat;lon;timestamp;temperature;humidity
30186;DHT22;31152;49.190;8.122;2023-07-09T00:02:16;22.30;96.60
30186;DHT22;31152;49.190;8.122;2023-07-09T00:04:45;22.30;97.20
30186;DHT22;31152;49.190;8.122;2023-07-09T00:07:27;22.20;97.00
30186;DHT22;31152;49.190;8.122;2023-07-09T00:09:55;22.10;97.20
30186;DHT22;31152;49.190;8.122;2023-07-09T00:12:22;22.10;97.40
30186;DHT22;31152;49.190;8.122;2023-07-09T00:14:49;22.10;97.80
30186;DHT22;31152;49.190;8.122;2023-07-09T00:17:42;22.00;98.00
30186;DHT22;31152;49.190;8.122;2023-07-09T00:20:14;22.00;98.40
30186;DHT22;31152;49.190;8.122;2023-07-09T00:22:42;22.10;98.80
30186;DHT22;31152;49.190;8.122;2023-07-09T00:25:14;22.10;98.80
30186;DHT22;31152;49.190;8.122;2023-07-09T00:27:43;22.20;98.80
30186;DHT22;31152;49.190;8.122;2023-07-09T00:30:22;22.30;98.60
30186;DHT22;31152;49.190;8.122;2023-07-09T00:32:50;22.30;98.40
30186;DHT22;31152;49.190;8.122;2023-07-09T00:35:21;22.30;98.90
30186;DHT22;31152;49.190;8.122;2023-07-09T00:37:48;22.30;98.50
30186;DHT22;31152;49.190;8.122;2023-07-09T00:40:21;22.30;98.60
30186;DHT22;31152;49.190;8.122;2023-07-09T00:42:50;22.30;98.90
30186;DHT22;31152;49.190;8.122;2023-07-09T00:45:23;22.20;99.30
30186;DHT22;31152;49.190;8.122;2023-07-09T00:47:58;22.10;99.60
30186;DHT22;31152;49.190;8.122;2023-07-09T00:50:42;22.00;99.90
30186;DHT22;31152;49.190;8.122;2023-07-09T00:53:31;21.90;99.90
30186;DHT22;31152;49.190;8.122;2023-07-09T00:56:06;21.80;99.90
30186;DHT22;31152;49.190;8.122;2023-07-09T00:58:35;21.70;99.90
30186;DHT22;31152;49.190;8.122;2023-07-09T01:01:05;21.60;99.90
30186;DHT22;31152;49.190;8.122;2023-07-09T01:03:39;21.60;99.90
30186;DHT22;31152;49.190;8.122;2023-07-09T01:06:13;21.50;99.90
30186;DHT22;31152;49.190;8.122;2023-07-09T01:08:40;21.50;99.90
30186;DHT22;31152;49.190;8.122;2023-07-09T01:11:22;21.50;99.90
30186;DHT22;31152;49.190;8.122;2023-07-09T01:14:00;21.50;99.90
30186;DHT22;31152;49.190;8.122;2023-07-09T01:16:32;21.60;99.90
30186;DHT22;31152;49.190;8.122;2023-07-09T01:19:05;21.60;99.90
30186;DHT22;31152;49.190;8.122;2023-07-09T01:21:32;21.60;99.90
30186;DHT22;31152;49.190;8.122;2023-07-09T01:24:15;21.50;99.90
30186;DHT22;31152;49.190;8.122;2023-07-09T01:26:46;21.40;99.90
30186;DHT22;31152;49.190;8.122;2023-07-09T01:29:13;21.30;99.90
30186;DHT22;31152;49.190;8.122;2023-07-09T01:31:40;21.30;99.90
30186;DHT22;31152;49.190;8.122;2023-07-09T01:34:06;21.30;99.90
30186;DHT22;31152;49.190;8.122;2023-07-09T01:36:35;21.30;99.90
30186;DHT22;31152;49.190;8.122;2023-07-09T01:39:06;21.20;99.90
30186;DHT22;31152;49.190;8.122;2023-07-09T01:41:33;21.20;99.90
30186;DHT22;31152;49.190;8.122;2023-07-09T01:44:01;21.30;99.90
30186;DHT22;31152;49.190;8.122;2023-07-09T01:46:27;21.30;99.90
30186;DHT22;31152;49.190;8.122;2023-07-09T01:48:54;21.20;99.90
30186;DHT22;31152;49.190;8.122;2023-07-09T01:51:21;21.20;99.90
30186;DHT22;31152;49.190;8.122;2023-07-09T01:53:53;21.20;99.90
30186;DHT22;31152;49.190;8.122;2023-07-09T01:56:20;21.10;99.90
30186;DHT22;31152;49.190;8.122;2023-07-09T01:58:51;21.10;99.90
30186;DHT22;31152;49.190;8.122;2023-07-09T02:01:17;21.10;99.90
30186;DHT22;31152;49.190;8.122;2023-07-09T02:03:48;21.00;99.90
30186;DHT22;31152;49.190;8.122;2023-07-09T02:06:17;21.00;99.90
30186;DHT22;31152;49.190;8.122;2023-07-09T02:08:46;20.90;99.90
30186;DHT22;31152;49.190;8.122;2023-07-09T02:11:13;20.90;99.90
30186;DHT22;31152;49.190;8.122;2023-07-09T02:13:39;20.80;99.90
30186;DHT22;31152;49.190;8.122;2023-07-09T02:16:06;20.90;99.90
30186;DHT22;31152;49.190;8.122;2023-07-09T02:18:34;20.90;99.90
30186;DHT22;31152;49.190;8.122;2023-07-09T02:21:01;20.80;99.90
30186;DHT22;31152;49.190;8.122;2023-07-09T02:23:28;20.80;99.90
30186;DHT22;31152;49.190;8.122;2023-07-09T02:25:59;20.80;99.90
30186;DHT22;31152;49.190;8.122;2023-07-09T02:28:27;20.80;99.90
30186;DHT22;31152;49.190;8.122;2023-07-09T02:30:56;20.80;99.90
30186;DHT22;31152;49.190;8.122;2023-07-09T02:33:22;20.80;99.90
30186;DHT22;31152;49.190;8.122;2023-07-09T02:35:50;20.80;99.90
30186;DHT22;31152;49.190;8.122;2023-07-09T02:38:16;20.80;99.90
30186;DHT22;31152;49.190;8.122;2023-07-09T02:40:43;20.70;99.90
30186;DHT22;31152;49.190;8.122;2023-07-09T02:43:10;20.60;99.90
30186;DHT22;31152;49.190;8.122;2023-07-09T02:45:37;20.60;99.90
30186;DHT22;31152;49.190;8.122;2023-07-09T02:48:03;20.60;99.90
30186;DHT22;31152;49.190;8.122;2023-07-09T02:50:30;20.50;99.90
30186;DHT22;31152;49.190;8.122;2023-07-09T02:52:57;20.50;99.90
30186;DHT22;31152;49.190;8.122;2023-07-09T02:55:24;20.50;99.90
30186;DHT22;31152;49.190;8.122;2023-07-09T02:57:50;20.40;99.90
30186;DHT22;31152;49.190;8.122;2023-07-09T03:00:17;20.30;99.90
30186;DHT22;31152;49.190;8.122;2023-07-09T03:02:44;20.30;99.90
30186;DHT22;31152;49.190;8.122;2023-07-09T03:05:11;20.20;99.90
30186;DHT22;31152;49.190;8.122;2023-07-09T03:07:40;20.20;99.90
30186;DHT22;31152;49.190;8.122;2023-07-09T03:10:07;20.10;99.90
30186;DHT22;31152;49.190;8.122;2023-07-09T03:12:34;20.10;99.90
30186;DHT22;31152;49.190;8.122;2023-07-09T03:15:01;20.00;99.90
30186;DHT22;31152;49.190;8.122;2023-07-09T03:17:30;20.00;99.90
30186;DHT22;31152;49.190;8.122;2023-07-09T03:19:56;20.00;99.90
30186;DHT22;31152;49.190;8.122;2023-07-09T03:22:23;20.00;99.90
30186;DHT22;31152;49.190;8.122;2023-07-09T03:24:50;20.00;99.90
30186;DHT22;31152;49.190;8.122;2023-07-09T03:27:17;20.00;99.90
30186;DHT22;31152;49.190;8.122;2023-07-09T03:29:43;20.00;99.90
30186;DHT22;31152;49.190;8.122;2023-07-09T03:32:10;20.00;99.90
30186;DHT22;31152;49.190;8.122;2023-07-09T03:34:39;20.00;99.90
30186;DHT22;31152;49.190;8.122;2023-07-09T03:37:08;19.90;99.90
30186;DHT22;31152;49.190;8.122;2023-07-09T03:39:35;19.80;99.90
30186;DHT22;31152;49.190;8.122;2023-07-09T03:42:02;19.80;99.90
30186;DHT22;31152;49.190;8.122;2023-07-09T03:44:31;19.80;99.90
30186;DHT22;31152;49.190;8.122;2023-07-09T03:46:58;19.80;99.90
30186;DHT22;31152;49.190;8.122;2023-07-09T03:49:25;19.80;99.90
30186;DHT22;31152;49.190;8.122;2023-07-09T03:51:52;19.80;99.90
30186;DHT22;31152;49.190;8.122;2023-07-09T03:54:18;19.80;99.90
30186;DHT22;31152;49.190;8.122;2023-07-09T03:56:46;19.80;99.90
30186;DHT22;31152;49.190;8.122;2023-07-09T03:59:13;19.80;99.90
30186;DHT22;31152;49.190;8.122;2023-07-09T04:01:40;19.80;99.90
30186;DHT22;31152;49.190;8.122;2023-07-09T04:04:10;19.80;99.90
30186;DHT22;31152;49.190;8.122;2023-07-09T04:06:37;19.90;99.90
30186;DHT22;31152;49.190;8.122;2023-07-09T04:09:04;19.90;99.90
30186;DHT22;31152;49.190;8.122;2023-07-09T04:11:33;19.80;99.90
30186;DHT22;31152;49.190;8.122;2023-07-09T04:14:00;19.80;99.90
30186;DHT22;31152;49.190;8.122;2023-07-09T04:16:27;19.80;99.90
30186;DHT22;31152;49.190;8.122;2023-07-09T04:18:53;19.80;99.90
30186;DHT22;31152;49.190;8.122;2023-07-09T04:21:20;19.80;99.90
30186;DHT22;31152;49.190;8.122;2023-07-09T04:23:49;19.80;99.90
30186;DHT22;31152;49.190;8.122;2023-07-09T04:26:16;19.80;99.90
30186;DHT22;31152;49.190;8.122;2023-07-09T04:28:45;19.80;99.90
30186;DHT22;31152;49.190;8.122;2023-07-09T04:31:14;19.80;99.90
30186;DHT22;31152;49.190;8.122;2023-07-09T04:33:41;19.80;99.90
30186;DHT22;31152;49.190;8.122;2023-07-09T04:36:10;19.80;99.90
30186;DHT22;31152;49.190;8.122;2023-07-09T04:38:39;19.80;99.90
30186;DHT22;31152;49.190;8.122;2023-07-09T04:41:06;19.70;99.90
30186;DHT22;31152;49.190;8.122;2023-07-09T04:43:36;19.80;99.90
30186;DHT22;31152;49.190;8.122;2023-07-09T04:46:03;19.80;99.90
30186;DHT22;31152;49.190;8.122;2023-07-09T04:48:30;19.90;99.90
30186;DHT22;31152;49.190;8.122;2023-07-09T04:50:56;19.90;99.90
30186;DHT22;31152;49.190;8.122;2023-07-09T04:53:23;19.90;99.90
30186;DHT22;31152;49.190;8.122;2023-07-09T04:55:50;20.00;99.90
30186;DHT22;31152;49.190;8.122;2023-07-09T04:58:17;20.10;99.90
30186;DHT22;31152;49.190;8.122;2023-07-09T05:00:47;20.20;99.90
30186;DHT22;31152;49.190;8.122;2023-07-09T05:03:14;20.30;99.90
30186;DHT22;31152;49.190;8.122;2023-07-09T05:05:45;20.40;99.90
30186;DHT22;31152;49.190;8.122;2023-07-09T05:08:13;20.50;99.90
30186;DHT22;31152;49.190;8.122;2023-07-09T05:10:44;20.40;99.90
30186;DHT22;31152;49.190;8.122;2023-07-09T05:13:11;20.50;99.90
30186;DHT22;31152;49.190;8.122;2023-07-09T05:15:42;20.60;99.90
30186;DHT22;31152;49.190;8.122;2023-07-09T05:18:09;20.70;99.90
30186;DHT22;31152;49.190;8.122;2023-07-09T05:20:36;20.80;99.90
30186;DHT22;31152;49.190;8.122;2023-07-09T05:23:05;20.80;99.90
30186;DHT22;31152;49.190;8.122;2023-07-09T05:25:32;20.90;99.90
30186;DHT22;31152;49.190;8.122;2023-07-09T05:27:58;21.00;99.90
30186;DHT22;31152;49.190;8.122;2023-07-09T05:30:25;21.10;99.90
30186;DHT22;31152;49.190;8.122;2023-07-09T05:32:52;21.20;99.90
30186;DHT22;31152;49.190;8.122;2023-07-09T05:35:25;21.20;99.90
30186;DHT22;31152;49.190;8.122;2023-07-09T05:37:53;21.20;99.90
30186;DHT22;31152;49.190;8.122;2023-07-09T05:40:21;21.30;99.90
30186;DHT22;31152;49.190;8.122;2023-07-09T05:42:48;21.30;99.90
30186;DHT22;31152;49.190;8.122;2023-07-09T05:45:15;21.40;99.90
30186;DHT22;31152;49.190;8.122;2023-07-09T05:47:44;21.50;99.90
30186;DHT22;31152;49.190;8.122;2023-07-09T05:50:11;21.60;99.90
30186;DHT22;31152;49.190;8.122;2023-07-09T05:52:38;21.70;99.90
30186;DHT22;31152;49.190;8.122;2023-07-09T05:55:05;21.80;99.90
30186;DHT22;31152;49.190;8.122;2023-07-09T05:57:32;21.80;99.90
30186;DHT22;31152;49.190;8.122;2023-07-09T05:59:59;21.90;99.90
30186;DHT22;31152;49.190;8.122;2023-07-09T06:02:28;22.00;99.90
30186;DHT22;31152;49.190;8.122;2023-07-09T06:04:57;22.10;99.90
30186;DHT22;31152;49.190;8.122;2023-07-09T06:07:25;22.20;99.90
30186;DHT22;31152;49.190;8.122;2023-07-09T06:09:51;22.30;99.90
30186;DHT22;31152;49.190;8.122;2023-07-09T06:12:18;22.40;99.90
30186;DHT22;31152;49.190;8.122;2023-07-09T06:14:48;22.60;99.90
30186;DHT22;31152;49.190;8.122;2023-07-09T06:17:15;22.70;99.90
30186;DHT22;31152;49.190;8.122;2023-07-09T06:19:42;22.80;99.90
30186;DHT22;31152;49.190;8.122;2023-07-09T06:22:08;22.90;99.90
30186;DHT22;31152;49.190;8.122;2023-07-09T06:24:35;23.10;99.90
30186;DHT22;31152;49.190;8.122;2023-07-09T06:27:02;23.10;99.90
30186;DHT22;31152;49.190;8.122;2023-07-09T06:29:29;23.30;99.90
30186;DHT22;31152;49.190;8.122;2023-07-09T06:31:58;23.30;99.90
30186;DHT22;31152;49.190;8.122;2023-07-09T06:34:27;23.50;99.90
30186;DHT22;31152;49.190;8.122;2023-07-09T06:36:55;23.50;99.90
30186;DHT22;31152;49.190;8.122;2023-07-09T06:39:22;23.70;99.90
30186;DHT22;31152;49.190;8.122;2023-07-09T06:41:49;23.80;99.90
30186;DHT22;31152;49.190;8.122;2023-07-09T06:44:16;23.90;99.90
30186;DHT22;31152;49.190;8.122;2023-07-09T06:46:43;24.00;99.60
30186;DHT22;31152;49.190;8.122;2023-07-09T06:49:11;24.20;99.30
30186;DHT22;31152;49.190;8.122;2023-07-09T06:51:38;24.30;98.80
30186;DHT22;31152;49.190;8.122;2023-07-09T06:54:05;24.40;98.50
30186;DHT22;31152;49.190;8.122;2023-07-09T06:56:33;24.40;98.30
30186;DHT22;31152;49.190;8.122;2023-07-09T06:58:59;24.60;98.00
30186;DHT22;31152;49.190;8.122;2023-07-09T07:01:26;24.70;97.80
30186;DHT22;31152;49.190;8.122;2023-07-09T07:03:53;24.80;97.60
30186;DHT22;31152;49.190;8.122;2023-07-09T07:06:22;24.90;98.10
30186;DHT22;31152;49.190;8.122;2023-07-09T07:08:49;25.00;97.90
30186;DHT22;31152;49.190;8.122;2023-07-09T07:11:15;25.20;98.40
30186;DHT22;31152;49.190;8.122;2023-07-09T07:13:43;25.30;97.80
30186;DHT22;31152;49.190;8.122;2023-07-09T07:16:11;25.40;97.90
30186;DHT22;31152;49.190;8.122;2023-07-09T07:18:38;25.50;97.90
30186;DHT22;31152;49.190;8.122;2023-07-09T07:21:05;25.70;97.60
30186;DHT22;31152;49.190;8.122;2023-07-09T07:23:33;25.70;97.00
30186;DHT22;31152;49.190;8.122;2023-07-09T07:25:59;25.80;96.90
30186;DHT22;31152;49.190;8.122;2023-07-09T07:28:26;25.90;97.10
30186;DHT22;31152;49.190;8.122;2023-07-09T07:31:05;26.20;97.20
30186;DHT22;31152;49.190;8.122;2023-07-09T07:33:38;26.30;96.80
30186;DHT22;31152;49.190;8.122;2023-07-09T07:36:06;26.50;96.30
30186;DHT22;31152;49.190;8.122;2023-07-09T07:38:55;26.70;96.10
30186;DHT22;31152;49.190;8.122;2023-07-09T07:41:22;27.00;95.50
30186;DHT22;31152;49.190;8.122;2023-07-09T07:43:49;27.10;95.00
30186;DHT22;31152;49.190;8.122;2023-07-09T07:46:15;27.10;95.20
30186;DHT22;31152;49.190;8.122;2023-07-09T07:48:42;27.10;95.30
30186;DHT22;31152;49.190;8.122;2023-07-09T07:51:09;27.10;95.20
30186;DHT22;31152;49.190;8.122;2023-07-09T07:53:36;27.20;95.00
30186;DHT22;31152;49.190;8.122;2023-07-09T07:56:03;27.30;94.50
30186;DHT22;31152;49.190;8.122;2023-07-09T07:58:31;27.50;93.80
30186;DHT22;31152;49.190;8.122;2023-07-09T08:00:58;27.50;93.30
30186;DHT22;31152;49.190;8.122;2023-07-09T08:03:27;27.50;93.00
30186;DHT22;31152;49.190;8.122;2023-07-09T08:05:54;27.60;93.20
30186;DHT22;31152;49.190;8.122;2023-07-09T08:08:21;27.60;93.10
30186;DHT22;31152;49.190;8.122;2023-07-09T08:10:50;27.60;92.80
30186;DHT22;31152;49.190;8.122;2023-07-09T08:13:18;27.70;93.00
30186;DHT22;31152;49.190;8.122;2023-07-09T08:15:46;27.80;93.00
30186;DHT22;31152;49.190;8.122;2023-07-09T08:18:13;28.10;93.00
30186;DHT22;31152;49.190;8.122;2023-07-09T08:20:44;28.30;92.50
30186;DHT22;31152;49.190;8.122;2023-07-09T08:23:11;28.50;91.80
30186;DHT22;31152;49.190;8.122;2023-07-09T08:25:38;28.80;90.80
30186;DHT22;31152;49.190;8.122;2023-07-09T08:28:05;28.80;91.00
30186;DHT22;31152;49.190;8.122;2023-07-09T08:30:31;28.70;91.10
30186;DHT22;31152;49.190;8.122;2023-07-09T08:33:00;28.70;90.70
30186;DHT22;31152;49.190;8.122;2023-07-09T08:35:27;28.80;90.90
30186;DHT22;31152;49.190;8.122;2023-07-09T08:38:02;28.90;90.80
30186;DHT22;31152;49.190;8.122;2023-07-09T08:40:29;28.80;90.80
30186;DHT22;31152;49.190;8.122;2023-07-09T08:43:05;28.80;90.60
30186;DHT22;31152;49.190;8.122;2023-07-09T08:48:30;29.10;90.00
30186;DHT22;31152;49.190;8.122;2023-07-09T08:51:03;29.20;88.80
30186;DHT22;31152;49.190;8.122;2023-07-09T08:53:45;29.20;88.70
30186;DHT22;31152;49.190;8.122;2023-07-09T08:56:15;29.20;89.20
30186;DHT22;31152;49.190;8.122;2023-07-09T08:58:46;29.30;89.30
30186;DHT22;31152;49.190;8.122;2023-07-09T09:01:40;29.30;89.40
30186;DHT22;31152;49.190;8.122;2023-07-09T09:04:19;29.70;88.70
30186;DHT22;31152;49.190;8.122;2023-07-09T09:06:59;30.00;87.30
30186;DHT22;31152;49.190;8.122;2023-07-09T09:09:42;30.30;85.90
30186;DHT22;31152;49.190;8.122;2023-07-09T09:12:24;30.50;84.40
30186;DHT22;31152;49.190;8.122;2023-07-09T09:14:57;30.70;85.10
30186;DHT22;31152;49.190;8.122;2023-07-09T09:17:27;30.80;83.90
30186;DHT22;31152;49.190;8.122;2023-07-09T09:19:58;31.10;83.80
30186;DHT22;31152;49.190;8.122;2023-07-09T09:22:31;31.20;82.70
30186;DHT22;31152;49.190;8.122;2023-07-09T09:25:09;31.10;81.20
30186;DHT22;31152;49.190;8.122;2023-07-09T09:27:41;31.10;80.00
30186;DHT22;31152;49.190;8.122;2023-07-09T09:30:14;31.10;81.40
30186;DHT22;31152;49.190;8.122;2023-07-09T09:32:47;31.40;81.40
30186;DHT22;31152;49.190;8.122;2023-07-09T09:35:17;31.60;80.10
30186;DHT22;31152;49.190;8.122;2023-07-09T09:37:51;31.90;77.90
30186;DHT22;31152;49.190;8.122;2023-07-09T09:40:19;32.30;77.10
30186;DHT22;31152;49.190;8.122;2023-07-09T09:42:51;32.60;74.30
30186;DHT22;31152;49.190;8.122;2023-07-09T09:45:26;32.80;72.00
30186;DHT22;31152;49.190;8.122;2023-07-09T09:47:59;32.60;71.00
30186;DHT22;31152;49.190;8.122;2023-07-09T09:50:32;32.60;72.10
30186;DHT22;31152;49.190;8.122;2023-07-09T09:52:59;32.60;71.30
30186;DHT22;31152;49.190;8.122;2023-07-09T09:55:30;32.70;71.40
30186;DHT22;31152;49.190;8.122;2023-07-09T09:57:59;32.90;70.00
30186;DHT22;31152;49.190;8.122;2023-07-09T10:00:28;33.00;69.60
30186;DHT22;31152;49.190;8.122;2023-07-09T10:03:01;33.20;67.70
30186;DHT22;31152;49.190;8.122;2023-07-09T10:05:44;33.50;67.00
30186;DHT22;31152;49.190;8.122;2023-07-09T10:11:19;33.90;62.50
30186;DHT22;31152;49.190;8.122;2023-07-09T10:13:49;33.90;63.30
30186;DHT22;31152;49.190;8.122;2023-07-09T10:16:26;34.20;62.40
30186;DHT22;31152;49.190;8.122;2023-07-09T10:19:02;34.40;60.90
30186;DHT22;31152;49.190;8.122;2023-07-09T10:21:45;34.60;60.10
30186;DHT22;31152;49.190;8.122;2023-07-09T10:29:46;34.60;58.60
30186;DHT22;31152;49.190;8.122;2023-07-09T10:35:22;34.70;57.10
30186;DHT22;31152;49.190;8.122;2023-07-09T10:40:43;34.90;56.90
30186;DHT22;31152;49.190;8.122;2023-07-09T10:43:15;35.20;55.80
30186;DHT22;31152;49.190;8.122;2023-07-09T10:45:47;35.50;55.30
30186;DHT22;31152;49.190;8.122;2023-07-09T10:48:46;35.80;54.60
30186;DHT22;31152;49.190;8.122;2023-07-09T10:51:20;36.00;52.60
30186;DHT22;31152;49.190;8.122;2023-07-09T10:54:34;36.30;51.40
30186;DHT22;31152;49.190;8.122;2023-07-09T10:56:40;36.30;51.40
30186;DHT22;31152;49.190;8.122;2023-07-09T10:59:29;36.40;50.90
30186;DHT22;31152;49.190;8.122;2023-07-09T11:02:06;36.30;51.60
30186;DHT22;31152;49.190;8.122;2023-07-09T11:07:20;36.40;50.70
30186;DHT22;31152;49.190;8.122;2023-07-09T11:09:49;36.50;51.00
30186;DHT22;31152;49.190;8.122;2023-07-09T11:12:33;36.60;50.90
30186;DHT22;31152;49.190;8.122;2023-07-09T11:15:14;36.80;50.00
30186;DHT22;31152;49.190;8.122;2023-07-09T11:17:47;36.70;48.30
30186;DHT22;31152;49.190;8.122;2023-07-09T11:22:59;36.40;49.40
30186;DHT22;31152;49.190;8.122;2023-07-09T11:25:45;36.30;48.60
30186;DHT22;31152;49.190;8.122;2023-07-09T11:28:12;36.00;48.70
30186;DHT22;31152;49.190;8.122;2023-07-09T11:30:50;36.00;49.80
30186;DHT22;31152;49.190;8.122;2023-07-09T11:33:27;36.30;49.80
30186;DHT22;31152;49.190;8.122;2023-07-09T11:36:12;36.20;49.20
30186;DHT22;31152;49.190;8.122;2023-07-09T11:38:47;36.30;49.40
30186;DHT22;31152;49.190;8.122;2023-07-09T11:44:21;36.10;49.30
30186;DHT22;31152;49.190;8.122;2023-07-09T11:47:23;36.20;49.30
30186;DHT22;31152;49.190;8.122;2023-07-09T11:52:39;37.10;48.20
30186;DHT22;31152;49.190;8.122;2023-07-09T11:55:50;37.30;48.00
30186;DHT22;31152;49.190;8.122;2023-07-09T11:58:18;37.50;47.80
30186;DHT22;31152;49.190;8.122;2023-07-09T12:00:53;37.60;46.70
30186;DHT22;31152;49.190;8.122;2023-07-09T12:03:24;37.40;47.50
30186;DHT22;31152;49.190;8.122;2023-07-09T12:06:17;37.30;47.30
30186;DHT22;31152;49.190;8.122;2023-07-09T12:08:49;37.30;47.30
30186;DHT22;31152;49.190;8.122;2023-07-09T12:11:36;37.10;47.90
30186;DHT22;31152;49.190;8.122;2023-07-09T12:14:16;37.20;47.80
30186;DHT22;31152;49.190;8.122;2023-07-09T12:16:51;37.30;47.70
30186;DHT22;31152;49.190;8.122;2023-07-09T12:19:20;37.40;47.90
30186;DHT22;31152;49.190;8.122;2023-07-09T12:21:57;37.50;46.80
30186;DHT22;31152;49.190;8.122;2023-07-09T12:24:30;37.40;46.90
30186;DHT22;31152;49.190;8.122;2023-07-09T12:27:02;37.10;47.20
30186;DHT22;31152;49.190;8.122;2023-07-09T12:29:37;36.90;47.10
30186;DHT22;31152;49.190;8.122;2023-07-09T12:32:11;36.60;47.20
30186;DHT22;31152;49.190;8.122;2023-07-09T12:34:39;36.50;47.50
30186;DHT22;31152;49.190;8.122;2023-07-09T12:37:12;36.60;48.00
30186;DHT22;31152;49.190;8.122;2023-07-09T12:39:43;36.70;47.60
30186;DHT22;31152;49.190;8.122;2023-07-09T12:42:19;36.70;47.40
30186;DHT22;31152;49.190;8.122;2023-07-09T12:44:49;36.60;47.40
30186;DHT22;31152;49.190;8.122;2023-07-09T12:47:18;36.80;47.60
30186;DHT22;31152;49.190;8.122;2023-07-09T12:49:45;37.10;46.80
30186;DHT22;31152;49.190;8.122;2023-07-09T12:52:18;37.20;46.80
30186;DHT22;31152;49.190;8.122;2023-07-09T12:54:56;37.40;46.60
30186;DHT22;31152;49.190;8.122;2023-07-09T12:57:23;37.30;45.10
30186;DHT22;31152;49.190;8.122;2023-07-09T12:59:51;37.30;45.20
30186;DHT22;31152;49.190;8.122;2023-07-09T13:02:21;37.50;45.40
30186;DHT22;31152;49.190;8.122;2023-07-09T13:04:49;37.50;46.00
30186;DHT22;31152;49.190;8.122;2023-07-09T13:07:26;37.60;44.80
30186;DHT22;31152;49.190;8.122;2023-07-09T13:09:55;37.40;45.20
30186;DHT22;31152;49.190;8.122;2023-07-09T13:12:31;37.30;45.10
30186;DHT22;31152;49.190;8.122;2023-07-09T13:14:59;37.20;45.40
30186;DHT22;31152;49.190;8.122;2023-07-09T13:17:30;37.00;44.90
30186;DHT22;31152;49.190;8.122;2023-07-09T13:20:02;36.70;45.10
30186;DHT22;31152;49.190;8.122;2023-07-09T13:22:29;37.00;45.60
30186;DHT22;31152;49.190;8.122;2023-07-09T13:24:56;37.30;45.60
30186;DHT22;31152;49.190;8.122;2023-07-09T13:27:25;37.60;44.80
30186;DHT22;31152;49.190;8.122;2023-07-09T13:29:52;37.50;43.20
30186;DHT22;31152;49.190;8.122;2023-07-09T13:32:19;37.20;43.00
30186;DHT22;31152;49.190;8.122;2023-07-09T13:34:48;37.20;44.30
30186;DHT22;31152;49.190;8.122;2023-07-09T13:37:16;37.30;44.30
30186;DHT22;31152;49.190;8.122;2023-07-09T13:39:43;37.10;44.90
30186;DHT22;31152;49.190;8.122;2023-07-09T13:42:16;37.10;44.10
30186;DHT22;31152;49.190;8.122;2023-07-09T13:44:45;37.10;44.70
30186;DHT22;31152;49.190;8.122;2023-07-09T13:47:17;37.00;44.90
30186;DHT22;31152;49.190;8.122;2023-07-09T13:49:45;37.00;44.80
30186;DHT22;31152;49.190;8.122;2023-07-09T13:52:22;37.00;44.50
30186;DHT22;31152;49.190;8.122;2023-07-09T13:54:50;37.10;44.80
30186;DHT22;31152;49.190;8.122;2023-07-09T13:57:19;37.20;44.90
30186;DHT22;31152;49.190;8.122;2023-07-09T13:59:50;37.20;44.40
30186;DHT22;31152;49.190;8.122;2023-07-09T14:02:29;37.30;44.50
30186;DHT22;31152;49.190;8.122;2023-07-09T14:05:03;37.40;43.80
30186;DHT22;31152;49.190;8.122;2023-07-09T14:07:32;37.30;44.40
30186;DHT22;31152;49.190;8.122;2023-07-09T14:10:00;37.40;43.90
30186;DHT22;31152;49.190;8.122;2023-07-09T14:12:28;37.60;43.60
30186;DHT22;31152;49.190;8.122;2023-07-09T14:15:01;37.50;44.00
30186;DHT22;31152;49.190;8.122;2023-07-09T14:17:28;37.30;43.50
30186;DHT22;31152;49.190;8.122;2023-07-09T14:19:55;37.20;43.30
30186;DHT22;31152;49.190;8.122;2023-07-09T14:22:36;37.10;44.10
30186;DHT22;31152;49.190;8.122;2023-07-09T14:25:05;37.10;44.30
30186;DHT22;31152;49.190;8.122;2023-07-09T14:27:34;37.10;44.00
30186;DHT22;31152;49.190;8.122;2023-07-09T14:30:01;37.00;43.60
30186;DHT22;31152;49.190;8.122;2023-07-09T14:32:38;37.10;44.10
30186;DHT22;31152;49.190;8.122;2023-07-09T14:35:24;37.10;44.30
30186;DHT22;31152;49.190;8.122;2023-07-09T14:37:52;37.00;42.90
30186;DHT22;31152;49.190;8.122;2023-07-09T14:40:21;37.00;43.00
30186;DHT22;31152;49.190;8.122;2023-07-09T14:42:49;37.00;42.20
30186;DHT22;31152;49.190;8.122;2023-07-09T14:45:25;37.00;42.60
30186;DHT22;31152;49.190;8.122;2023-07-09T14:47:52;36.90;43.10
30186;DHT22;31152;49.190;8.122;2023-07-09T14:50:21;36.80;42.70
30186;DHT22;31152;49.190;8.122;2023-07-09T14:52:48;36.80;42.40
30186;DHT22;31152;49.190;8.122;2023-07-09T14:55:22;36.70;42.70
30186;DHT22;31152;49.190;8.122;2023-07-09T14:57:50;36.60;43.40
30186;DHT22;31152;49.190;8.122;2023-07-09T15:00:21;36.50;43.80
30186;DHT22;31152;49.190;8.122;2023-07-09T15:02:51;36.40;44.30
30186;DHT22;31152;49.190;8.122;2023-07-09T15:05:22;36.30;44.10
30186;DHT22;31152;49.190;8.122;2023-07-09T15:07:49;36.20;44.30
30186;DHT22;31152;49.190;8.122;2023-07-09T15:10:21;36.10;44.10
30186;DHT22;31152;49.190;8.122;2023-07-09T15:12:49;36.10;44.50
30186;DHT22;31152;49.190;8.122;2023-07-09T15:15:20;36.00;43.60
30186;DHT22;31152;49.190;8.122;2023-07-09T15:17:50;35.80;43.90
30186;DHT22;31152;49.190;8.122;2023-07-09T15:20:19;35.80;44.00
30186;DHT22;31152;49.190;8.122;2023-07-09T15:22:52;35.70;44.20
30186;DHT22;31152;49.190;8.122;2023-07-09T15:25:19;35.60;45.40
30186;DHT22;31152;49.190;8.122;2023-07-09T15:27:47;35.40;45.70
30186;DHT22;31152;49.190;8.122;2023-07-09T15:30:27;35.40;44.60
30186;DHT22;31152;49.190;8.122;2023-07-09T15:32:58;35.40;45.60
30186;DHT22;31152;49.190;8.122;2023-07-09T15:35:36;35.30;44.90
30186;DHT22;31152;49.190;8.122;2023-07-09T15:40:48;35.20;45.90
30186;DHT22;31152;49.190;8.122;2023-07-09T15:43:20;35.10;46.20
30186;DHT22;31152;49.190;8.122;2023-07-09T15:45:51;35.20;46.00
30186;DHT22;31152;49.190;8.122;2023-07-09T15:48:45;35.10;46.10
30186;DHT22;31152;49.190;8.122;2023-07-09T15:51:14;35.00;46.50
30186;DHT22;31152;49.190;8.122;2023-07-09T15:53:43;34.90;47.30
30186;DHT22;31152;49.190;8.122;2023-07-09T15:56:24;34.80;48.30
30186;DHT22;31152;49.190;8.122;2023-07-09T15:58:53;34.70;47.90
30186;DHT22;31152;49.190;8.122;2023-07-09T16:01:23;34.70;47.90
30186;DHT22;31152;49.190;8.122;2023-07-09T16:03:58;34.60;48.60
30186;DHT22;31152;49.190;8.122;2023-07-09T16:06:25;34.50;49.30
30186;DHT22;31152;49.190;8.122;2023-07-09T16:08:52;34.40;49.70
30186;DHT22;31152;49.190;8.122;2023-07-09T16:11:23;34.30;51.10
30186;DHT22;31152;49.190;8.122;2023-07-09T16:13:52;34.30;51.30
30186;DHT22;31152;49.190;8.122;2023-07-09T16:16:22;34.40;50.90
30186;DHT22;31152;49.190;8.122;2023-07-09T16:18:50;34.50;51.00
30186;DHT22;31152;49.190;8.122;2023-07-09T16:21:25;34.60;51.30
30186;DHT22;31152;49.190;8.122;2023-07-09T16:23:55;34.70;52.00